sensor_id;sensor_type;location;lat;lon;timestamp;temperature;humidity
18101;DHT22;9177;49.156;8.142;2022-08-07T00:01:01;27.30;90.30
18101;DHT22;9177;49.156;8.142;2022-08-07T00:03:28;27.30;89.90
18101;DHT22;9177;49.156;8.142;2022-08-07T00:05:57;27.30;89.90
18101;DHT22;9177;49.156;8.142;2022-08-07T00:08:24;27.30;90.00
18101;DHT22;9177;49.156;8.142;2022-08-07T00:10:51;27.30;90.00
18101;DHT22;9177;49.156;8.142;2022-08-07T00:13:19;27.30;90.00
18101;DHT22;9177;49.156;8.142;2022-08-07T00:15:47;27.30;90.00
18101;DHT22;9177;49.156;8.142;2022-08-07T00:18:15;27.30;90.00
18101;DHT22;9177;49.156;8.142;2022-08-07T00:20:42;27.30;90.00
18101;DHT22;9177;49.156;8.142;2022-08-07T00:23:11;27.30;90.00
18101;DHT22;9177;49.156;8.142;2022-08-07T00:25:39;27.30;90.00
18101;DHT22;9177;49.156;8.142;2022-08-07T00:28:06;27.30;90.00
18101;DHT22;9177;49.156;8.142;2022-08-07T00:30:33;27.30;90.00
18101;DHT22;9177;49.156;8.142;2022-08-07T00:33:00;27.30;90.00
18101;DHT22;9177;49.156;8.142;2022-08-07T00:35:28;27.30;90.00
18101;DHT22;9177;49.156;8.142;2022-08-07T00:37:55;27.30;90.00
18101;DHT22;9177;49.156;8.142;2022-08-07T00:40:23;27.30;90.10
18101;DHT22;9177;49.156;8.142;2022-08-07T00:42:50;27.30;90.10
18101;DHT22;9177;49.156;8.142;2022-08-07T00:45:17;27.30;90.10
18101;DHT22;9177;49.156;8.142;2022-08-07T00:47:45;27.30;90.10
18101;DHT22;9177;49.156;8.142;2022-08-07T00:50:12;27.30;90.10
18101;DHT22;9177;49.156;8.142;2022-08-07T00:52:39;27.30;90.10
18101;DHT22;9177;49.156;8.142;2022-08-07T00:55:07;27.30;90.20
18101;DHT22;9177;49.156;8.142;2022-08-07T00:57:36;27.30;90.20
18101;DHT22;9177;49.156;8.142;2022-08-07T01:00:04;27.30;90.20
18101;DHT22;9177;49.156;8.142;2022-08-07T01:02:32;27.30;90.20
18101;DHT22;9177;49.156;8.142;2022-08-07T01:05:00;27.30;90.20
18101;DHT22;9177;49.156;8.142;2022-08-07T01:07:31;27.30;90.20
18101;DHT22;9177;49.156;8.142;2022-08-07T01:09:58;27.30;90.30
18101;DHT22;9177;49.156;8.142;2022-08-07T01:12:25;27.30;90.30
18101;DHT22;9177;49.156;8.142;2022-08-07T01:14:54;27.30;90.30
18101;DHT22;9177;49.156;8.142;2022-08-07T01:17:22;27.30;90.30
18101;DHT22;9177;49.156;8.142;2022-08-07T01:19:49;27.30;90.30
18101;DHT22;9177;49.156;8.142;2022-08-07T01:22:19;27.30;90.30
18101;DHT22;9177;49.156;8.142;2022-08-07T01:24:46;27.30;90.30
18101;DHT22;9177;49.156;8.142;2022-08-07T01:27:13;27.30;90.30
18101;DHT22;9177;49.156;8.142;2022-08-07T01:29:41;27.30;90.30
18101;DHT22;9177;49.156;8.142;2022-08-07T01:32:08;27.30;90.30
18101;DHT22;9177;49.156;8.142;2022-08-07T01:34:35;27.30;90.30
18101;DHT22;9177;49.156;8.142;2022-08-07T01:37:03;27.30;90.30
18101;DHT22;9177;49.156;8.142;2022-08-07T01:39:31;27.20;90.30
18101;DHT22;9177;49.156;8.142;2022-08-07T01:41:59;27.30;90.30
18101;DHT22;9177;49.156;8.142;2022-08-07T01:44:26;27.30;90.30
18101;DHT22;9177;49.156;8.142;2022-08-07T01:46:53;27.30;90.30
18101;DHT22;9177;49.156;8.142;2022-08-07T01:49:20;27.30;90.70
18101;DHT22;9177;49.156;8.142;2022-08-07T01:51:48;27.30;90.30
18101;DHT22;9177;49.156;8.142;2022-08-07T01:54:18;27.30;90.30
18101;DHT22;9177;49.156;8.142;2022-08-07T01:56:48;27.20;90.20
18101;DHT22;9177;49.156;8.142;2022-08-07T01:59:23;27.20;90.20
18101;DHT22;9177;49.156;8.142;2022-08-07T02:01:55;27.30;90.20
18101;DHT22;9177;49.156;8.142;2022-08-07T02:04:27;27.20;90.20
18101;DHT22;9177;49.156;8.142;2022-08-07T02:06:56;27.20;90.20
18101;DHT22;9177;49.156;8.142;2022-08-07T02:09:25;27.20;90.20
18101;DHT22;9177;49.156;8.142;2022-08-07T02:11:56;27.20;90.20
18101;DHT22;9177;49.156;8.142;2022-08-07T02:14:25;27.20;90.30
18101;DHT22;9177;49.156;8.142;2022-08-07T02:16:53;27.20;90.30
18101;DHT22;9177;49.156;8.142;2022-08-07T02:19:22;27.20;90.30
18101;DHT22;9177;49.156;8.142;2022-08-07T02:21:50;27.20;90.30
18101;DHT22;9177;49.156;8.142;2022-08-07T02:24:18;27.20;90.70
18101;DHT22;9177;49.156;8.142;2022-08-07T02:26:46;27.20;90.30
18101;DHT22;9177;49.156;8.142;2022-08-07T02:29:16;27.20;90.30
18101;DHT22;9177;49.156;8.142;2022-08-07T02:31:47;27.20;90.40
18101;DHT22;9177;49.156;8.142;2022-08-07T02:34:15;27.20;90.40
18101;DHT22;9177;49.156;8.142;2022-08-07T02:36:43;27.20;90.40
18101;DHT22;9177;49.156;8.142;2022-08-07T02:39:13;27.20;90.40
18101;DHT22;9177;49.156;8.142;2022-08-07T02:41:40;27.20;90.40
18101;DHT22;9177;49.156;8.142;2022-08-07T02:44:07;27.20;90.40
18101;DHT22;9177;49.156;8.142;2022-08-07T02:46:37;27.20;90.40
18101;DHT22;9177;49.156;8.142;2022-08-07T02:49:04;27.20;90.40
18101;DHT22;9177;49.156;8.142;2022-08-07T02:51:33;27.20;90.50
18101;DHT22;9177;49.156;8.142;2022-08-07T02:54:02;27.20;90.40
18101;DHT22;9177;49.156;8.142;2022-08-07T02:56:31;27.20;90.40
18101;DHT22;9177;49.156;8.142;2022-08-07T02:59:01;27.20;90.40
18101;DHT22;9177;49.156;8.142;2022-08-07T03:01:30;27.20;90.50
18101;DHT22;9177;49.156;8.142;2022-08-07T03:04:00;27.20;90.40
18101;DHT22;9177;49.156;8.142;2022-08-07T03:06:28;27.20;90.40
18101;DHT22;9177;49.156;8.142;2022-08-07T03:08:56;27.20;90.40
18101;DHT22;9177;49.156;8.142;2022-08-07T03:11:23;27.20;90.40
18101;DHT22;9177;49.156;8.142;2022-08-07T03:13:50;27.20;90.40
18101;DHT22;9177;49.156;8.142;2022-08-07T03:16:19;27.20;90.40
18101;DHT22;9177;49.156;8.142;2022-08-07T03:18:46;27.20;90.30
18101;DHT22;9177;49.156;8.142;2022-08-07T03:21:15;27.20;90.30
18101;DHT22;9177;49.156;8.142;2022-08-07T03:23:43;27.20;90.30
18101;DHT22;9177;49.156;8.142;2022-08-07T03:26:13;27.20;90.30
18101;DHT22;9177;49.156;8.142;2022-08-07T03:28:44;27.20;89.90
18101;DHT22;9177;49.156;8.142;2022-08-07T03:31:11;27.20;90.30
18101;DHT22;9177;49.156;8.142;2022-08-07T03:33:46;27.10;90.20
18101;DHT22;9177;49.156;8.142;2022-08-07T03:36:14;27.20;90.10
18101;DHT22;9177;49.156;8.142;2022-08-07T03:38:44;27.10;90.20
18101;DHT22;9177;49.156;8.142;2022-08-07T03:41:12;27.10;90.20
18101;DHT22;9177;49.156;8.142;2022-08-07T03:43:40;27.10;90.30
18101;DHT22;9177;49.156;8.142;2022-08-07T03:46:07;27.10;90.30
18101;DHT22;9177;49.156;8.142;2022-08-07T03:48:35;27.10;90.30
18101;DHT22;9177;49.156;8.142;2022-08-07T03:51:03;27.10;90.30
18101;DHT22;9177;49.156;8.142;2022-08-07T03:53:32;27.10;90.30
18101;DHT22;9177;49.156;8.142;2022-08-07T03:56:00;27.10;90.30
18101;DHT22;9177;49.156;8.142;2022-08-07T03:58:28;27.10;90.30
18101;DHT22;9177;49.156;8.142;2022-08-07T04:00:57;27.10;90.30
18101;DHT22;9177;49.156;8.142;2022-08-07T04:03:25;27.10;90.30
18101;DHT22;9177;49.156;8.142;2022-08-07T04:05:52;27.10;90.30
18101;DHT22;9177;49.156;8.142;2022-08-07T04:08:19;27.10;90.30
18101;DHT22;9177;49.156;8.142;2022-08-07T04:10:47;27.10;90.30
18101;DHT22;9177;49.156;8.142;2022-08-07T04:13:15;27.10;90.30
18101;DHT22;9177;49.156;8.142;2022-08-07T04:15:43;27.10;90.30
18101;DHT22;9177;49.156;8.142;2022-08-07T04:18:11;27.10;90.30
18101;DHT22;9177;49.156;8.142;2022-08-07T04:20:38;27.10;89.90
18101;DHT22;9177;49.156;8.142;2022-08-07T04:23:06;27.10;89.30
18101;DHT22;9177;49.156;8.142;2022-08-07T04:25:34;27.10;89.20
18101;DHT22;9177;49.156;8.142;2022-08-07T04:28:04;27.10;89.20
18101;DHT22;9177;49.156;8.142;2022-08-07T04:30:32;27.10;89.20
18101;DHT22;9177;49.156;8.142;2022-08-07T04:33:00;27.10;89.00
18101;DHT22;9177;49.156;8.142;2022-08-07T04:35:27;27.10;89.20
18101;DHT22;9177;49.156;8.142;2022-08-07T04:37:55;27.10;89.00
18101;DHT22;9177;49.156;8.142;2022-08-07T04:40:23;27.10;89.20
18101;DHT22;9177;49.156;8.142;2022-08-07T04:42:50;27.10;89.40
18101;DHT22;9177;49.156;8.142;2022-08-07T04:45:19;27.10;89.40
18101;DHT22;9177;49.156;8.142;2022-08-07T04:47:56;27.10;89.20
18101;DHT22;9177;49.156;8.142;2022-08-07T04:50:33;27.10;89.10
18101;DHT22;9177;49.156;8.142;2022-08-07T04:53:06;27.10;89.10
18101;DHT22;9177;49.156;8.142;2022-08-07T04:55:38;27.10;89.00
18101;DHT22;9177;49.156;8.142;2022-08-07T04:58:15;27.10;89.90
18101;DHT22;9177;49.156;8.142;2022-08-07T05:00:49;27.10;89.00
18101;DHT22;9177;49.156;8.142;2022-08-07T05:03:22;27.10;89.50
18101;DHT22;9177;49.156;8.142;2022-08-07T05:05:53;27.10;89.40
18101;DHT22;9177;49.156;8.142;2022-08-07T05:08:27;27.10;89.30
18101;DHT22;9177;49.156;8.142;2022-08-07T05:11:04;27.10;89.20
18101;DHT22;9177;49.156;8.142;2022-08-07T05:13:35;27.10;89.50
18101;DHT22;9177;49.156;8.142;2022-08-07T05:16:08;27.10;89.60
18101;DHT22;9177;49.156;8.142;2022-08-07T05:18:39;27.10;89.30
18101;DHT22;9177;49.156;8.142;2022-08-07T05:21:11;27.10;89.50
18101;DHT22;9177;49.156;8.142;2022-08-07T05:23:43;27.10;89.90
18101;DHT22;9177;49.156;8.142;2022-08-07T05:26:16;27.00;89.70
18101;DHT22;9177;49.156;8.142;2022-08-07T05:28:44;27.10;88.80
18101;DHT22;9177;49.156;8.142;2022-08-07T05:31:16;27.10;89.10
18101;DHT22;9177;49.156;8.142;2022-08-07T05:33:44;27.00;89.60
18101;DHT22;9177;49.156;8.142;2022-08-07T05:36:15;27.10;88.90
18101;DHT22;9177;49.156;8.142;2022-08-07T05:38:42;27.10;89.30
18101;DHT22;9177;49.156;8.142;2022-08-07T05:41:10;27.10;89.50
18101;DHT22;9177;49.156;8.142;2022-08-07T05:43:38;27.00;88.90
18101;DHT22;9177;49.156;8.142;2022-08-07T05:46:06;27.00;88.80
18101;DHT22;9177;49.156;8.142;2022-08-07T05:48:34;27.10;89.20
18101;DHT22;9177;49.156;8.142;2022-08-07T05:51:03;27.00;89.10
18101;DHT22;9177;49.156;8.142;2022-08-07T05:53:31;27.10;89.30
18101;DHT22;9177;49.156;8.142;2022-08-07T05:55:58;27.10;89.30
18101;DHT22;9177;49.156;8.142;2022-08-07T05:58:27;27.10;89.20
18101;DHT22;9177;49.156;8.142;2022-08-07T06:00:56;27.10;89.30
18101;DHT22;9177;49.156;8.142;2022-08-07T06:03:25;27.10;89.00
18101;DHT22;9177;49.156;8.142;2022-08-07T06:05:54;27.10;89.30
18101;DHT22;9177;49.156;8.142;2022-08-07T06:08:22;27.10;89.20
18101;DHT22;9177;49.156;8.142;2022-08-07T06:10:49;27.10;90.00
18101;DHT22;9177;49.156;8.142;2022-08-07T06:13:16;27.10;89.20
18101;DHT22;9177;49.156;8.142;2022-08-07T06:15:44;27.00;89.40
18101;DHT22;9177;49.156;8.142;2022-08-07T06:18:14;27.00;89.20
18101;DHT22;9177;49.156;8.142;2022-08-07T06:20:43;27.00;89.60
18101;DHT22;9177;49.156;8.142;2022-08-07T06:23:11;27.00;89.90
18101;DHT22;9177;49.156;8.142;2022-08-07T06:25:39;27.00;89.00
18101;DHT22;9177;49.156;8.142;2022-08-07T06:28:08;27.00;89.50
18101;DHT22;9177;49.156;8.142;2022-08-07T06:30:36;27.00;89.50
18101;DHT22;9177;49.156;8.142;2022-08-07T06:33:04;27.10;89.20
18101;DHT22;9177;49.156;8.142;2022-08-07T06:35:32;27.00;89.50
18101;DHT22;9177;49.156;8.142;2022-08-07T06:38:00;27.00;89.80
18101;DHT22;9177;49.156;8.142;2022-08-07T06:40:29;27.00;89.80
18101;DHT22;9177;49.156;8.142;2022-08-07T06:43:04;27.00;90.00
18101;DHT22;9177;49.156;8.142;2022-08-07T06:45:33;27.00;90.00
18101;DHT22;9177;49.156;8.142;2022-08-07T06:48:00;27.00;90.00
18101;DHT22;9177;49.156;8.142;2022-08-07T06:50:28;27.00;90.00
18101;DHT22;9177;49.156;8.142;2022-08-07T06:52:58;27.00;90.10
18101;DHT22;9177;49.156;8.142;2022-08-07T06:55:29;27.00;90.10
18101;DHT22;9177;49.156;8.142;2022-08-07T06:57:59;27.00;90.10
18101;DHT22;9177;49.156;8.142;2022-08-07T07:00:27;27.00;90.10
18101;DHT22;9177;49.156;8.142;2022-08-07T07:02:56;27.00;90.10
18101;DHT22;9177;49.156;8.142;2022-08-07T07:05:24;27.00;90.10
18101;DHT22;9177;49.156;8.142;2022-08-07T07:07:51;27.00;90.20
18101;DHT22;9177;49.156;8.142;2022-08-07T07:10:26;27.00;90.10
18101;DHT22;9177;49.156;8.142;2022-08-07T07:12:59;27.10;90.10
18101;DHT22;9177;49.156;8.142;2022-08-07T07:15:29;27.00;90.00
18101;DHT22;9177;49.156;8.142;2022-08-07T07:18:02;27.00;90.10
18101;DHT22;9177;49.156;8.142;2022-08-07T07:20:36;27.00;90.10
18101;DHT22;9177;49.156;8.142;2022-08-07T07:23:05;27.10;90.10
18101;DHT22;9177;49.156;8.142;2022-08-07T07:25:34;27.00;90.00
18101;DHT22;9177;49.156;8.142;2022-08-07T07:28:09;27.00;90.10
18101;DHT22;9177;49.156;8.142;2022-08-07T07:30:41;27.10;90.20
18101;DHT22;9177;49.156;8.142;2022-08-07T07:33:10;27.10;90.10
18101;DHT22;9177;49.156;8.142;2022-08-07T07:35:40;27.10;90.10
18101;DHT22;9177;49.156;8.142;2022-08-07T07:38:08;27.20;90.00
18101;DHT22;9177;49.156;8.142;2022-08-07T07:40:36;27.20;90.00
18101;DHT22;9177;49.156;8.142;2022-08-07T07:43:07;27.20;89.70
18101;DHT22;9177;49.156;8.142;2022-08-07T07:45:36;27.30;89.60
18101;DHT22;9177;49.156;8.142;2022-08-07T07:48:06;27.30;89.40
18101;DHT22;9177;49.156;8.142;2022-08-07T07:50:33;27.30;89.20
18101;DHT22;9177;49.156;8.142;2022-08-07T07:53:02;27.30;90.00
18101;DHT22;9177;49.156;8.142;2022-08-07T07:55:30;27.40;89.10
18101;DHT22;9177;49.156;8.142;2022-08-07T07:57:57;27.40;89.00
18101;DHT22;9177;49.156;8.142;2022-08-07T08:00:26;27.40;89.00
18101;DHT22;9177;49.156;8.142;2022-08-07T08:02:58;27.40;88.90
18101;DHT22;9177;49.156;8.142;2022-08-07T08:05:27;27.50;89.00
18101;DHT22;9177;49.156;8.142;2022-08-07T08:07:55;27.50;89.00
18101;DHT22;9177;49.156;8.142;2022-08-07T08:10:22;27.50;88.90
18101;DHT22;9177;49.156;8.142;2022-08-07T08:12:49;27.50;88.90
18101;DHT22;9177;49.156;8.142;2022-08-07T08:15:17;27.50;88.90
18101;DHT22;9177;49.156;8.142;2022-08-07T08:17:46;27.60;89.00
18101;DHT22;9177;49.156;8.142;2022-08-07T08:20:15;27.60;89.00
18101;DHT22;9177;49.156;8.142;2022-08-07T08:22:43;27.60;89.00
18101;DHT22;9177;49.156;8.142;2022-08-07T08:25:32;27.60;89.00
18101;DHT22;9177;49.156;8.142;2022-08-07T08:28:20;27.60;89.00
18101;DHT22;9177;49.156;8.142;2022-08-07T08:30:53;27.60;89.00
18101;DHT22;9177;49.156;8.142;2022-08-07T08:33:23;27.70;89.00
18101;DHT22;9177;49.156;8.142;2022-08-07T08:35:53;27.70;89.10
18101;DHT22;9177;49.156;8.142;2022-08-07T08:38:22;27.70;89.10
18101;DHT22;9177;49.156;8.142;2022-08-07T08:40:55;27.70;89.20
18101;DHT22;9177;49.156;8.142;2022-08-07T08:43:32;27.70;89.10
18101;DHT22;9177;49.156;8.142;2022-08-07T08:46:05;27.70;89.10
18101;DHT22;9177;49.156;8.142;2022-08-07T08:48:39;27.70;89.20
18101;DHT22;9177;49.156;8.142;2022-08-07T08:51:16;27.70;89.20
18101;DHT22;9177;49.156;8.142;2022-08-07T08:53:51;27.80;89.30
18101;DHT22;9177;49.156;8.142;2022-08-07T08:56:24;27.80;89.30
18101;DHT22;9177;49.156;8.142;2022-08-07T08:58:55;27.80;89.20
18101;DHT22;9177;49.156;8.142;2022-08-07T09:01:30;27.80;89.30
18101;DHT22;9177;49.156;8.142;2022-08-07T09:04:07;27.80;89.20
18101;DHT22;9177;49.156;8.142;2022-08-07T09:06:49;27.80;89.30
18101;DHT22;9177;49.156;8.142;2022-08-07T09:09:30;27.80;89.20
18101;DHT22;9177;49.156;8.142;2022-08-07T09:12:06;27.80;89.30
18101;DHT22;9177;49.156;8.142;2022-08-07T09:14:42;27.80;89.30
18101;DHT22;9177;49.156;8.142;2022-08-07T09:17:19;27.80;89.20
18101;DHT22;9177;49.156;8.142;2022-08-07T09:19:54;27.90;89.30
18101;DHT22;9177;49.156;8.142;2022-08-07T09:22:43;27.80;89.30
18101;DHT22;9177;49.156;8.142;2022-08-07T09:25:22;27.90;89.30
18101;DHT22;9177;49.156;8.142;2022-08-07T09:27:56;27.90;89.30
18101;DHT22;9177;49.156;8.142;2022-08-07T09:30:31;27.90;89.30
18101;DHT22;9177;49.156;8.142;2022-08-07T09:33:11;27.90;89.40
18101;DHT22;9177;49.156;8.142;2022-08-07T09:35:44;27.90;89.40
18101;DHT22;9177;49.156;8.142;2022-08-07T09:38:21;27.90;89.40
18101;DHT22;9177;49.156;8.142;2022-08-07T09:41:00;27.90;89.40
18101;DHT22;9177;49.156;8.142;2022-08-07T09:43:40;27.90;89.40
18101;DHT22;9177;49.156;8.142;2022-08-07T09:46:19;27.90;89.40
18101;DHT22;9177;49.156;8.142;2022-08-07T09:48:57;27.90;89.50
18101;DHT22;9177;49.156;8.142;2022-08-07T09:51:46;27.90;89.50
18101;DHT22;9177;49.156;8.142;2022-08-07T09:54:20;27.90;89.60
18101;DHT22;9177;49.156;8.142;2022-08-07T09:57:06;28.00;89.70
18101;DHT22;9177;49.156;8.142;2022-08-07T09:59:57;28.00;89.70
18101;DHT22;9177;49.156;8.142;2022-08-07T10:02:47;28.00;89.80
18101;DHT22;9177;49.156;8.142;2022-08-07T10:05:38;28.00;89.80
18101;DHT22;9177;49.156;8.142;2022-08-07T10:08:33;28.00;89.90
18101;DHT22;9177;49.156;8.142;2022-08-07T10:11:07;28.00;89.90
18101;DHT22;9177;49.156;8.142;2022-08-07T10:13:48;28.00;89.90
18101;DHT22;9177;49.156;8.142;2022-08-07T10:16:28;28.00;89.90
18101;DHT22;9177;49.156;8.142;2022-08-07T10:19:17;28.00;89.90
18101;DHT22;9177;49.156;8.142;2022-08-07T10:21:52;28.00;89.90
18101;DHT22;9177;49.156;8.142;2022-08-07T10:24:41;28.00;90.30
18101;DHT22;9177;49.156;8.142;2022-08-07T10:27:30;28.00;89.90
18101;DHT22;9177;49.156;8.142;2022-08-07T10:30:04;28.00;89.90
18101;DHT22;9177;49.156;8.142;2022-08-07T10:32:58;28.00;89.80
18101;DHT22;9177;49.156;8.142;2022-08-07T10:35:33;28.00;89.90
18101;DHT22;9177;49.156;8.142;2022-08-07T10:38:13;28.00;89.90
18101;DHT22;9177;49.156;8.142;2022-08-07T10:40:50;28.00;89.90
18101;DHT22;9177;49.156;8.142;2022-08-07T10:43:27;28.00;89.80
18101;DHT22;9177;49.156;8.142;2022-08-07T10:45:59;28.00;89.90
18101;DHT22;9177;49.156;8.142;2022-08-07T10:48:35;28.10;90.00
18101;DHT22;9177;49.156;8.142;2022-08-07T10:51:09;28.00;89.90
18101;DHT22;9177;49.156;8.142;2022-08-07T10:53:42;28.00;89.90
18101;DHT22;9177;49.156;8.142;2022-08-07T10:56:22;28.00;89.90
18101;DHT22;9177;49.156;8.142;2022-08-07T10:58:56;28.00;89.90
18101;DHT22;9177;49.156;8.142;2022-08-07T11:01:36;28.10;89.90
18101;DHT22;9177;49.156;8.142;2022-08-07T11:04:10;28.10;89.80
18101;DHT22;9177;49.156;8.142;2022-08-07T11:06:47;28.10;89.70
18101;DHT22;9177;49.156;8.142;2022-08-07T11:09:19;28.10;89.60
18101;DHT22;9177;49.156;8.142;2022-08-07T11:11:57;28.10;89.60
18101;DHT22;9177;49.156;8.142;2022-08-07T11:14:33;28.10;89.60
18101;DHT22;9177;49.156;8.142;2022-08-07T11:17:06;28.10;89.70
18101;DHT22;9177;49.156;8.142;2022-08-07T11:19:41;28.10;89.70
18101;DHT22;9177;49.156;8.142;2022-08-07T11:22:16;28.10;89.80
18101;DHT22;9177;49.156;8.142;2022-08-07T11:24:46;28.10;89.80
18101;DHT22;9177;49.156;8.142;2022-08-07T11:27:22;28.10;89.80
18101;DHT22;9177;49.156;8.142;2022-08-07T11:29:56;28.20;89.90
18101;DHT22;9177;49.156;8.142;2022-08-07T11:32:32;28.20;90.00
18101;DHT22;9177;49.156;8.142;2022-08-07T11:35:05;28.20;90.00
18101;DHT22;9177;49.156;8.142;2022-08-07T11:37:46;28.20;90.00
18101;DHT22;9177;49.156;8.142;2022-08-07T11:40:24;28.20;90.00
18101;DHT22;9177;49.156;8.142;2022-08-07T11:42:59;28.20;90.00
18101;DHT22;9177;49.156;8.142;2022-08-07T11:45:36;28.20;90.00
18101;DHT22;9177;49.156;8.142;2022-08-07T11:48:33;28.20;90.10
18101;DHT22;9177;49.156;8.142;2022-08-07T11:51:16;28.20;90.10
18101;DHT22;9177;49.156;8.142;2022-08-07T11:53:52;28.20;90.10
18101;DHT22;9177;49.156;8.142;2022-08-07T11:56:35;28.20;90.20
18101;DHT22;9177;49.156;8.142;2022-08-07T11:59:29;28.20;90.10
18101;DHT22;9177;49.156;8.142;2022-08-07T12:02:06;28.20;90.20
18101;DHT22;9177;49.156;8.142;2022-08-07T12:04:54;28.20;90.20
18101;DHT22;9177;49.156;8.142;2022-08-07T12:07:24;28.30;90.30
18101;DHT22;9177;49.156;8.142;2022-08-07T12:09:56;28.30;90.40
18101;DHT22;9177;49.156;8.142;2022-08-07T12:12:26;28.40;90.50
18101;DHT22;9177;49.156;8.142;2022-08-07T12:15:00;28.40;90.50
18101;DHT22;9177;49.156;8.142;2022-08-07T12:17:36;28.40;90.50
18101;DHT22;9177;49.156;8.142;2022-08-07T12:20:07;28.40;90.50
18101;DHT22;9177;49.156;8.142;2022-08-07T12:22:42;28.40;90.50
18101;DHT22;9177;49.156;8.142;2022-08-07T12:25:12;28.50;90.50
18101;DHT22;9177;49.156;8.142;2022-08-07T12:28:02;28.50;90.60
18101;DHT22;9177;49.156;8.142;2022-08-07T12:30:35;28.50;90.60
18101;DHT22;9177;49.156;8.142;2022-08-07T12:33:11;28.50;90.70
18101;DHT22;9177;49.156;8.142;2022-08-07T12:35:44;28.50;90.60
18101;DHT22;9177;49.156;8.142;2022-08-07T12:38:12;28.50;90.70
18101;DHT22;9177;49.156;8.142;2022-08-07T12:40:42;28.50;90.70
18101;DHT22;9177;49.156;8.142;2022-08-07T12:43:11;28.60;90.70
18101;DHT22;9177;49.156;8.142;2022-08-07T12:45:45;28.70;90.70
18101;DHT22;9177;49.156;8.142;2022-08-07T12:48:26;28.70;90.70
18101;DHT22;9177;49.156;8.142;2022-08-07T12:51:02;28.70;90.70
18101;DHT22;9177;49.156;8.142;2022-08-07T12:53:34;28.70;90.70
18101;DHT22;9177;49.156;8.142;2022-08-07T12:56:18;28.70;90.80
18101;DHT22;9177;49.156;8.142;2022-08-07T12:58:50;28.80;90.70
18101;DHT22;9177;49.156;8.142;2022-08-07T13:01:28;28.80;90.70
18101;DHT22;9177;49.156;8.142;2022-08-07T13:04:23;28.80;90.70
18101;DHT22;9177;49.156;8.142;2022-08-07T13:10:28;28.90;91.10
18101;DHT22;9177;49.156;8.142;2022-08-07T13:15:52;28.90;90.60
18101;DHT22;9177;49.156;8.142;2022-08-07T13:18:30;29.00;90.60
18101;DHT22;9177;49.156;8.142;2022-08-07T13:21:04;29.00;90.60
18101;DHT22;9177;49.156;8.142;2022-08-07T13:23:38;29.00;90.60
18101;DHT22;9177;49.156;8.142;2022-08-07T13:26:13;29.10;90.70
18101;DHT22;9177;49.156;8.142;2022-08-07T13:28:46;29.00;90.60
18101;DHT22;9177;49.156;8.142;2022-08-07T13:31:19;29.10;90.70
18101;DHT22;9177;49.156;8.142;2022-08-07T13:33:54;29.10;90.60
18101;DHT22;9177;49.156;8.142;2022-08-07T13:36:29;29.20;90.70
18101;DHT22;9177;49.156;8.142;2022-08-07T13:39:02;29.20;90.70
18101;DHT22;9177;49.156;8.142;2022-08-07T13:41:37;29.20;90.70
18101;DHT22;9177;49.156;8.142;2022-08-07T13:44:05;29.20;90.70
18101;DHT22;9177;49.156;8.142;2022-08-07T13:46:36;29.20;90.70
18101;DHT22;9177;49.156;8.142;2022-08-07T13:49:06;29.20;90.70
18101;DHT22;9177;49.156;8.142;2022-08-07T13:51:35;29.20;90.80
18101;DHT22;9177;49.156;8.142;2022-08-07T13:54:06;29.30;90.80
18101;DHT22;9177;49.156;8.142;2022-08-07T13:56:37;29.30;90.90
18101;DHT22;9177;49.156;8.142;2022-08-07T13:59:07;29.30;90.90
18101;DHT22;9177;49.156;8.142;2022-08-07T14:01:37;29.20;90.90
18101;DHT22;9177;49.156;8.142;2022-08-07T14:04:10;29.20;91.00
18101;DHT22;9177;49.156;8.142;2022-08-07T14:06:40;29.20;91.00
18101;DHT22;9177;49.156;8.142;2022-08-07T14:09:15;29.20;91.00
18101;DHT22;9177;49.156;8.142;2022-08-07T14:11:45;29.20;91.10
18101;DHT22;9177;49.156;8.142;2022-08-07T14:14:14;29.20;91.10
18101;DHT22;9177;49.156;8.142;2022-08-07T14:16:47;29.20;91.10
18101;DHT22;9177;49.156;8.142;2022-08-07T14:19:27;29.10;91.20
18101;DHT22;9177;49.156;8.142;2022-08-07T14:21:56;29.10;91.20
18101;DHT22;9177;49.156;8.142;2022-08-07T14:24:28;29.10;91.20
18101;DHT22;9177;49.156;8.142;2022-08-07T14:26:59;29.10;91.20
18101;DHT22;9177;49.156;8.142;2022-08-07T14:29:31;29.10;91.20
18101;DHT22;9177;49.156;8.142;2022-08-07T14:32:01;29.10;91.20
18101;DHT22;9177;49.156;8.142;2022-08-07T14:34:32;29.10;91.60
18101;DHT22;9177;49.156;8.142;2022-08-07T14:37:01;29.10;91.20
18101;DHT22;9177;49.156;8.142;2022-08-07T14:39:28;29.10;91.20
18101;DHT22;9177;49.156;8.142;2022-08-07T14:41:56;29.10;91.60
18101;DHT22;9177;49.156;8.142;2022-08-07T14:44:25;29.00;91.00
18101;DHT22;9177;49.156;8.142;2022-08-07T14:46:55;29.00;91.10
18101;DHT22;9177;49.156;8.142;2022-08-07T14:49:28;29.00;91.20
18101;DHT22;9177;49.156;8.142;2022-08-07T14:51:57;28.90;91.30
18101;DHT22;9177;49.156;8.142;2022-08-07T14:54:28;28.90;91.40
18101;DHT22;9177;49.156;8.142;2022-08-07T14:56:59;29.00;91.40
18101;DHT22;9177;49.156;8.142;2022-08-07T14:59:27;28.90;91.40
18101;DHT22;9177;49.156;8.142;2022-08-07T15:01:56;28.90;91.50
18101;DHT22;9177;49.156;8.142;2022-08-07T15:04:23;28.90;91.50
18101;DHT22;9177;49.156;8.142;2022-08-07T15:06:57;28.90;91.40
18101;DHT22;9177;49.156;8.142;2022-08-07T15:09:25;28.90;91.40
18101;DHT22;9177;49.156;8.142;2022-08-07T15:12:03;28.90;91.40
18101;DHT22;9177;49.156;8.142;2022-08-07T15:14:31;28.90;91.50
18101;DHT22;9177;49.156;8.142;2022-08-07T15:17:02;28.90;91.40
18101;DHT22;9177;49.156;8.142;2022-08-07T15:19:34;28.90;91.60
18101;DHT22;9177;49.156;8.142;2022-08-07T15:22:03;28.90;91.50
18101;DHT22;9177;49.156;8.142;2022-08-07T15:24:34;28.90;91.40
18101;DHT22;9177;49.156;8.142;2022-08-07T15:27:08;28.90;91.30
18101;DHT22;9177;49.156;8.142;2022-08-07T15:29:38;28.90;91.60
18101;DHT22;9177;49.156;8.142;2022-08-07T15:32:06;28.90;91.40
18101;DHT22;9177;49.156;8.142;2022-08-07T15:34:35;28.90;91.50
18101;DHT22;9177;49.156;8.142;2022-08-07T15:37:06;28.90;91.50
18101;DHT22;9177;49.156;8.142;2022-08-07T15:39:37;28.90;91.50
18101;DHT22;9177;49.156;8.142;2022-08-07T15:42:06;28.90;91.50
18101;DHT22;9177;49.156;8.142;2022-08-07T15:44:44;28.90;91.40
18101;DHT22;9177;49.156;8.142;2022-08-07T15:47:14;28.90;91.50
18101;DHT22;9177;49.156;8.142;2022-08-07T15:49:45;28.90;91.50
18101;DHT22;9177;49.156;8.142;2022-08-07T15:52:18;28.90;91.50
18101;DHT22;9177;49.156;8.142;2022-08-07T15:54:47;28.90;91.40
18101;DHT22;9177;49.156;8.142;2022-08-07T15:57:22;28.90;91.20
18101;DHT22;9177;49.156;8.142;2022-08-07T15:59:50;28.90;91.40
18101;DHT22;9177;49.156;8.142;2022-08-07T16:02:24;28.90;91.40
18101;DHT22;9177;49.156;8.142;2022-08-07T16:05:05;28.90;91.40
18101;DHT22;9177;49.156;8.142;2022-08-07T16:07:46;28.90;91.40
18101;DHT22;9177;49.156;8.142;2022-08-07T16:10:16;28.90;91.30
18101;DHT22;9177;49.156;8.142;2022-08-07T16:12:52;28.90;91.30
18101;DHT22;9177;49.156;8.142;2022-08-07T16:15:30;28.90;91.20
18101;DHT22;9177;49.156;8.142;2022-08-07T16:18:06;28.90;91.20
18101;DHT22;9177;49.156;8.142;2022-08-07T16:20:44;28.90;91.20